createdAt,value
2018-06-11T00:01:39.308Z,15.50
2018-06-11T00:04:07.614Z,15.50
2018-06-11T00:06:35.963Z,15.60
2018-06-11T00:09:06.996Z,15.60
2018-06-11T00:11:35.473Z,15.50
2018-06-11T00:14:03.801Z,15.50
2018-06-11T00:16:32.253Z,15.50
2018-06-11T00:19:00.817Z,15.50
2018-06-11T00:21:29.112Z,15.30
2018-06-11T00:23:57.837Z,15.40
2018-06-11T00:26:26.165Z,15.40
2018-06-11T00:28:54.496Z,15.40
2018-06-11T00:31:22.833Z,15.40
2018-06-11T00:33:51.139Z,15.30
2018-06-11T00:43:43.669Z,14.90
2018-06-11T00:48:40.153Z,15.10
2018-06-11T00:53:36.549Z,15.10
2018-06-11T00:56:06.708Z,15.10
2018-06-11T00:58:35.854Z,15.10
2018-06-11T01:01:04.529Z,14.90
2018-06-11T01:03:32.813Z,14.80
2018-06-11T01:06:01.177Z,15.00
2018-06-11T01:08:29.533Z,15.00
2018-06-11T01:10:57.840Z,14.90
2018-06-11T01:13:26.158Z,14.70
2018-06-11T01:15:54.613Z,14.80
2018-06-11T01:18:22.967Z,14.70
2018-06-11T01:20:51.283Z,14.80
2018-06-11T01:23:19.618Z,14.80
2018-06-11T01:25:47.956Z,14.70
2018-06-11T01:28:16.257Z,14.60
2018-06-11T01:30:44.686Z,14.70
2018-06-11T01:33:13.056Z,14.70
2018-06-11T01:35:41.373Z,14.60
2018-06-11T01:38:09.693Z,14.60
2018-06-11T01:40:38.005Z,14.30
2018-06-11T01:43:06.434Z,14.20
2018-06-11T01:45:35.339Z,14.30
2018-06-11T01:50:31.757Z,14.40
2018-06-11T01:53:00.076Z,14.40
2018-06-11T01:55:28.392Z,14.40
2018-06-11T01:57:56.725Z,14.40
2018-06-11T02:00:25.277Z,14.30
2018-06-11T02:02:53.659Z,14.30
2018-06-11T02:05:21.957Z,14.30
2018-06-11T02:07:50.458Z,14.20
2018-06-11T02:10:18.805Z,14.10
2018-06-11T02:12:47.130Z,14.00
2018-06-11T02:15:15.614Z,14.10
2018-06-11T02:17:43.917Z,13.80
2018-06-11T02:20:12.231Z,13.80
2018-06-11T02:22:40.560Z,13.80
2018-06-11T02:25:08.909Z,14.00
2018-06-11T02:27:37.206Z,13.90
2018-06-11T02:30:05.709Z,13.90
2018-06-11T02:32:34.107Z,13.80
2018-06-11T02:35:02.470Z,13.90
2018-06-11T02:37:30.792Z,13.90
2018-06-11T02:39:59.125Z,13.80
2018-06-11T02:42:27.487Z,13.80
2018-06-11T02:44:55.813Z,13.80
2018-06-11T02:47:24.136Z,13.80
2018-06-11T02:49:52.414Z,13.80
2018-06-11T02:52:21.173Z,13.80
2018-06-11T02:54:49.537Z,13.70
2018-06-11T02:57:17.805Z,13.70
2018-06-11T02:59:46.125Z,13.60
2018-06-11T03:02:14.461Z,13.70
2018-06-11T03:04:42.792Z,13.70
2018-06-11T03:07:11.469Z,13.60
2018-06-11T03:09:39.912Z,13.70
2018-06-11T03:12:08.241Z,13.50
2018-06-11T03:14:37.193Z,13.40
2018-06-11T03:17:05.493Z,13.40
2018-06-11T03:19:34.913Z,13.30
2018-06-11T03:22:03.376Z,13.40
2018-06-11T03:24:31.700Z,13.60
2018-06-11T03:27:00.489Z,13.50
2018-06-11T03:29:28.942Z,13.60
2018-06-11T03:31:57.225Z,13.60
2018-06-11T03:34:25.508Z,13.60
2018-06-11T03:36:53.969Z,13.50
2018-06-11T03:39:22.322Z,13.30
2018-06-11T03:44:19.512Z,13.10
2018-06-11T03:46:47.806Z,13.20
2018-06-11T03:49:16.479Z,13.50
2018-06-11T03:56:41.001Z,13.50
2018-06-11T03:59:09.324Z,13.50
2018-06-11T04:01:37.701Z,13.50
2018-06-11T04:04:06.098Z,13.50
2018-06-11T04:06:34.840Z,13.50
2018-06-11T04:09:04.620Z,13.50
2018-06-11T04:11:32.985Z,13.40
2018-06-11T04:14:01.785Z,13.50
2018-06-11T04:18:58.162Z,13.50
2018-06-11T04:21:26.613Z,13.40
2018-06-11T04:26:23.017Z,13.30
2018-06-11T04:28:51.321Z,13.30
2018-06-11T04:31:19.658Z,13.30
2018-06-11T04:33:48.005Z,13.40
2018-06-11T04:36:16.511Z,13.60
2018-06-11T04:38:44.796Z,13.50
2018-06-11T04:41:13.081Z,13.40
2018-06-11T04:43:41.540Z,13.50
2018-06-11T04:46:09.861Z,13.60
2018-06-11T04:48:38.181Z,13.50
2018-06-11T04:53:34.577Z,13.60
2018-06-11T04:56:02.969Z,13.60
2018-06-11T04:58:31.369Z,13.80
2018-06-11T05:00:59.696Z,13.70
2018-06-11T05:03:28.073Z,13.70
2018-06-11T05:05:56.518Z,13.80
2018-06-11T05:08:24.845Z,14.00
2018-06-11T05:10:53.185Z,14.20
2018-06-11T05:13:21.703Z,14.10
2018-06-11T05:15:50.026Z,14.10
2018-06-11T05:18:18.434Z,14.10
2018-06-11T05:20:46.777Z,14.10
2018-06-11T05:23:15.157Z,14.20
2018-06-11T05:25:45.695Z,14.30
2018-06-11T05:28:16.179Z,14.50
2018-06-11T05:30:54.922Z,14.50
2018-06-11T05:33:31.212Z,14.50
2018-06-11T05:35:59.521Z,14.60
2018-06-11T05:38:28.074Z,14.60
2018-06-11T05:40:56.808Z,14.80
2018-06-11T05:43:25.209Z,14.80
2018-06-11T05:45:53.585Z,15.00
2018-06-11T05:48:27.927Z,15.10
2018-06-11T05:50:56.289Z,15.40
2018-06-11T05:53:26.940Z,15.50
2018-06-11T05:56:00.820Z,15.80
2018-06-11T05:58:29.121Z,16.00
2018-06-11T06:01:03.828Z,16.20
2018-06-11T06:03:33.137Z,16.20
2018-06-11T06:06:02.361Z,16.20
2018-06-11T06:08:35.661Z,15.90
2018-06-11T06:11:04.988Z,15.90
2018-06-11T06:13:51.896Z,15.90
2018-06-11T06:16:20.317Z,16.00
2018-06-11T06:18:49.090Z,15.90
2018-06-11T06:21:18.877Z,15.90
2018-06-11T06:23:47.564Z,16.30
2018-06-11T06:26:15.845Z,16.50
2018-06-11T06:28:44.254Z,16.40
2018-06-11T06:31:12.638Z,16.60
2018-06-11T06:33:40.981Z,16.40
2018-06-11T06:36:09.490Z,16.50
2018-06-11T06:38:37.794Z,16.80
2018-06-11T06:41:06.124Z,16.80
2018-06-11T06:43:34.826Z,16.80
2018-06-11T06:46:05.376Z,17.00
2018-06-11T06:48:33.685Z,17.50
2018-06-11T06:51:02.017Z,17.20
2018-06-11T06:53:32.441Z,17.40
2018-06-11T06:56:00.745Z,17.50
2018-06-11T06:58:29.050Z,17.40
2018-06-11T07:01:01.190Z,17.40
2018-06-11T07:03:29.509Z,17.50
2018-06-11T07:05:57.845Z,17.70
2018-06-11T07:08:26.234Z,18.00
2018-06-11T07:10:55.009Z,17.60
2018-06-11T07:13:23.318Z,17.60
2018-06-11T07:15:52.557Z,17.70
2018-06-11T07:18:21.053Z,18.10
2018-06-11T07:20:49.424Z,18.10
2018-06-11T07:23:20.078Z,18.00
2018-06-11T07:25:48.742Z,18.30
2018-06-11T07:28:17.576Z,18.10
2018-06-11T07:30:47.149Z,18.30
2018-06-11T07:33:16.585Z,18.70
2018-06-11T07:35:46.939Z,18.70
2018-06-11T07:38:16.329Z,18.90
2018-06-11T07:40:46.498Z,19.30
2018-06-11T07:43:16.032Z,19.10
2018-06-11T07:45:45.181Z,18.70
2018-06-11T07:48:14.015Z,19.10
2018-06-11T07:50:42.825Z,19.50
2018-06-11T07:53:11.167Z,19.60
2018-06-11T07:55:39.985Z,19.30
2018-06-11T07:58:09.246Z,19.30
2018-06-11T08:00:38.072Z,18.70
2018-06-11T08:03:07.092Z,19.30
2018-06-11T08:05:36.502Z,19.10
2018-06-11T08:08:05.011Z,19.10
2018-06-11T08:10:33.606Z,19.00
2018-06-11T08:13:01.970Z,19.00
2018-06-11T08:15:30.293Z,19.20
2018-06-11T08:17:58.650Z,19.90
2018-06-11T08:20:26.984Z,19.90
2018-06-11T08:25:23.441Z,19.70
2018-06-11T08:27:51.825Z,19.80
2018-06-11T08:30:20.581Z,19.90
2018-06-11T08:32:49.740Z,19.90
2018-06-11T08:35:18.017Z,19.60
2018-06-11T08:37:46.332Z,19.70
2018-06-11T08:40:15.033Z,20.40
2018-06-11T08:42:43.329Z,20.60
2018-06-11T08:45:11.613Z,20.50
2018-06-11T08:47:41.181Z,20.00
2018-06-11T08:50:11.863Z,20.00
2018-06-11T08:52:40.337Z,19.90
2018-06-11T08:55:08.674Z,20.20
2018-06-11T08:57:37.049Z,20.30
2018-06-11T09:00:06.107Z,20.40
2018-06-11T09:02:34.421Z,20.40
2018-06-11T09:05:03.175Z,20.30
2018-06-11T09:07:31.638Z,20.50
2018-06-11T09:10:00.072Z,20.40
2018-06-11T09:12:28.526Z,20.20
2018-06-11T09:14:57.084Z,20.20
2018-06-11T09:17:25.417Z,20.00
2018-06-11T09:19:53.725Z,20.00
2018-06-11T09:22:22.218Z,20.50
2018-06-11T09:24:50.669Z,20.30
2018-06-11T09:29:47.466Z,20.30
2018-06-11T09:32:16.597Z,20.10
2018-06-11T09:34:46.173Z,20.30
2018-06-11T09:37:14.485Z,20.90
2018-06-11T09:39:43.985Z,20.90
2018-06-11T09:42:14.926Z,21.30
2018-06-11T09:44:43.241Z,21.40
2018-06-11T09:47:12.005Z,21.30
2018-06-11T09:49:42.770Z,22.00
2018-06-11T09:52:11.113Z,22.20
2018-06-11T09:54:39.572Z,22.00
2018-06-11T09:57:09.226Z,21.40
2018-06-11T09:59:39.275Z,21.40
2018-06-11T10:02:08.578Z,21.50
2018-06-11T10:04:41.669Z,21.60
2018-06-11T10:07:11.606Z,22.00
2018-06-11T10:09:42.737Z,22.30
2018-06-11T10:12:11.064Z,22.40
2018-06-11T10:14:39.445Z,22.90
2018-06-11T10:17:08.857Z,22.50
2018-06-11T10:19:37.130Z,22.60
2018-06-11T10:22:05.831Z,22.90
2018-06-11T10:27:02.689Z,22.80
2018-06-11T10:29:31.314Z,23.20
2018-06-11T10:31:59.633Z,23.40
2018-06-11T10:34:29.627Z,24.10
2018-06-11T10:36:57.997Z,24.10
2018-06-11T10:39:26.909Z,24.30
2018-06-11T10:44:28.477Z,23.70
2018-06-11T10:46:57.178Z,24.10
2018-06-11T10:49:30.506Z,24.10
2018-06-11T10:52:03.593Z,24.10
2018-06-11T10:54:32.414Z,23.90
2018-06-11T10:57:02.105Z,24.10
2018-06-11T10:59:30.697Z,23.40
2018-06-11T11:01:59.781Z,22.50
2018-06-11T11:04:28.710Z,22.90
2018-06-11T11:06:57.013Z,22.70
2018-06-11T11:09:25.365Z,22.50
2018-06-11T11:11:54.368Z,23.10
2018-06-11T11:14:22.720Z,23.60
2018-06-11T11:16:51.903Z,23.60
2018-06-11T11:19:22.247Z,23.50
2018-06-11T11:21:50.553Z,23.90
2018-06-11T11:24:19.361Z,23.60
2018-06-11T11:26:48.679Z,23.70
2018-06-11T11:29:18.410Z,24.50
2018-06-11T11:31:52.478Z,25.10
2018-06-11T11:34:20.789Z,25.00
2018-06-11T11:36:53.529Z,25.30
2018-06-11T11:39:26.357Z,25.60
2018-06-11T11:41:55.281Z,25.10
2018-06-11T11:44:24.175Z,25.40
2018-06-11T11:46:57.281Z,25.10
2018-06-11T11:49:30.375Z,24.90
2018-06-11T11:52:05.088Z,24.90
2018-06-11T11:54:35.030Z,24.90
2018-06-11T11:57:08.097Z,25.40
2018-06-11T11:59:39.532Z,25.40
2018-06-11T12:02:08.157Z,25.20
2018-06-11T12:04:37.253Z,25.40
2018-06-11T12:07:05.856Z,25.80
2018-06-11T12:09:34.340Z,26.00
2018-06-11T12:12:02.646Z,25.90
2018-06-11T12:14:31.503Z,26.20
2018-06-11T12:17:01.042Z,25.50
2018-06-11T12:19:29.478Z,25.60
2018-06-11T12:21:58.360Z,25.80
2018-06-11T12:24:26.897Z,26.30
2018-06-11T12:26:55.575Z,26.20
2018-06-11T12:29:24.337Z,26.60
2018-06-11T12:31:53.121Z,26.20
2018-06-11T12:34:21.393Z,25.80
2018-06-11T12:36:50.481Z,26.40
2018-06-11T12:39:21.099Z,26.40
2018-06-11T12:41:49.445Z,25.50
2018-06-11T12:44:21.405Z,25.20
2018-06-11T12:46:50.546Z,24.90
2018-06-11T12:49:20.373Z,25.00
2018-06-11T12:51:49.013Z,25.50
2018-06-11T12:54:18.595Z,26.30
2018-06-11T12:56:46.976Z,26.30
2018-06-11T12:59:15.500Z,26.20
2018-06-11T13:01:56.625Z,26.30
2018-06-11T13:04:27.238Z,25.50
2018-06-11T13:09:34.882Z,26.00
2018-06-11T13:12:25.342Z,26.00
2018-06-11T13:14:54.617Z,25.30
2018-06-11T13:17:22.971Z,25.80
2018-06-11T13:19:51.248Z,26.10
2018-06-11T13:22:19.878Z,26.00
2018-06-11T13:24:48.382Z,25.80
2018-06-11T13:29:45.109Z,26.40
2018-06-11T13:32:14.026Z,26.50
2018-06-11T13:34:42.914Z,26.20
2018-06-11T13:37:12.498Z,25.70
2018-06-11T13:39:42.113Z,25.80
2018-06-11T13:42:14.780Z,26.50
2018-06-11T13:44:43.075Z,26.70
2018-06-11T13:47:11.380Z,26.80
2018-06-11T13:52:08.610Z,26.30
2018-06-11T13:54:37.145Z,26.60
2018-06-11T13:57:05.901Z,26.70
2018-06-11T13:59:34.541Z,26.20
2018-06-11T14:02:04.024Z,26.70
2018-06-11T14:04:32.909Z,26.80
2018-06-11T14:07:02.957Z,26.40
2018-06-11T14:09:31.538Z,26.30
2018-06-11T14:11:59.837Z,26.50
2018-06-11T14:14:28.383Z,26.60
2018-06-11T14:16:56.650Z,25.90
2018-06-11T14:19:26.890Z,26.30
2018-06-11T14:21:55.237Z,26.30
2018-06-11T14:24:24.480Z,26.20
2018-06-11T14:26:54.069Z,26.30
2018-06-11T14:29:22.700Z,26.60
2018-06-11T14:31:51.053Z,26.50
2018-06-11T14:34:19.447Z,26.70
2018-06-11T14:36:47.705Z,26.50
2018-06-11T14:39:15.977Z,26.90
2018-06-11T14:41:44.302Z,26.40
2018-06-11T14:44:12.653Z,26.40
2018-06-11T14:49:31.165Z,26.90
2018-06-11T14:51:59.884Z,26.70
2018-06-11T14:54:28.978Z,26.00
2018-06-11T14:56:57.288Z,26.70
2018-06-11T14:59:25.967Z,26.30
2018-06-11T15:01:55.272Z,26.00
2018-06-11T15:04:23.604Z,26.20
2018-06-11T15:06:52.141Z,26.20
2018-06-11T15:09:20.441Z,26.30
2018-06-11T15:11:49.076Z,26.30
2018-06-11T15:14:17.805Z,26.60
2018-06-11T15:16:46.362Z,26.30
2018-06-11T15:19:15.141Z,26.10
2018-06-11T15:21:43.829Z,26.00
2018-06-11T15:24:12.596Z,25.70
2018-06-11T15:26:45.357Z,25.60
2018-06-11T15:29:14.488Z,25.80
2018-06-11T15:31:42.761Z,25.10
2018-06-11T15:34:11.122Z,25.00
2018-06-11T15:36:39.416Z,24.70
2018-06-11T15:39:08.195Z,24.90
2018-06-11T15:41:36.550Z,24.70
2018-06-11T15:44:04.871Z,24.60
2018-06-11T15:46:33.208Z,24.90
2018-06-11T15:51:29.569Z,24.50
2018-06-11T15:53:58.498Z,24.20
2018-06-11T15:56:26.956Z,24.30
2018-06-11T15:58:55.240Z,24.30
2018-06-11T16:01:23.737Z,24.20
2018-06-11T16:03:54.584Z,24.00
2018-06-11T16:06:22.945Z,23.90
2018-06-11T16:08:52.113Z,24.00
2018-06-11T16:11:20.873Z,24.10
2018-06-11T16:13:53.652Z,24.20
2018-06-11T16:18:55.352Z,24.00
2018-06-11T16:21:23.637Z,24.00
2018-06-11T16:23:54.355Z,23.90
2018-06-11T16:26:23.178Z,24.20
2018-06-11T16:28:51.897Z,24.10
2018-06-11T16:31:20.613Z,23.80
2018-06-11T16:33:48.848Z,23.90
2018-06-11T16:36:17.150Z,24.00
2018-06-11T16:38:45.449Z,24.10
2018-06-11T16:41:13.742Z,24.00
2018-06-11T16:43:42.109Z,23.90
2018-06-11T16:46:11.100Z,23.90
2018-06-11T16:48:39.433Z,23.90
2018-06-11T16:51:07.717Z,23.80
2018-06-11T16:53:36.088Z,23.90
2018-06-11T16:56:04.446Z,23.90
2018-06-11T16:58:32.722Z,23.90
2018-06-11T17:01:00.995Z,23.80
2018-06-11T17:03:29.265Z,23.60
2018-06-11T17:05:57.568Z,23.50
2018-06-11T17:08:26.029Z,23.10
2018-06-11T17:10:54.345Z,23.40
2018-06-11T17:13:22.650Z,23.10
2018-06-11T17:15:51.217Z,23.00
2018-06-11T17:18:19.576Z,23.00
2018-06-11T17:20:47.849Z,23.00
2018-06-11T17:23:16.145Z,22.90
2018-06-11T17:25:44.480Z,23.00
2018-06-11T17:28:12.749Z,23.20
2018-06-11T17:30:41.651Z,23.00
2018-06-11T17:33:10.029Z,23.00
2018-06-11T17:35:38.304Z,22.80
2018-06-11T17:38:06.680Z,22.60
2018-06-11T17:40:35.073Z,22.50
2018-06-11T17:43:03.345Z,22.40
2018-06-11T17:45:31.720Z,22.50
2018-06-11T17:48:00.126Z,22.80
2018-06-11T17:50:28.400Z,22.60
2018-06-11T17:52:56.748Z,22.50
2018-06-11T17:55:25.036Z,22.50
2018-06-11T17:57:54.604Z,22.50
2018-06-11T18:00:23.269Z,22.50
2018-06-11T18:05:19.589Z,22.40
2018-06-11T18:07:47.921Z,22.60
2018-06-11T18:10:16.617Z,22.50
2018-06-11T18:12:44.956Z,22.10
2018-06-11T18:15:14.063Z,22.20
2018-06-11T18:17:42.378Z,22.20
2018-06-11T18:20:10.903Z,22.20
2018-06-11T18:22:39.334Z,22.40
2018-06-11T18:25:07.686Z,22.10
2018-06-11T18:27:36.133Z,22.00
2018-06-11T18:30:04.792Z,22.10
2018-06-11T18:32:33.089Z,22.10
2018-06-11T18:35:01.529Z,21.90
2018-06-11T18:37:29.820Z,21.90
2018-06-11T18:39:58.215Z,22.00
2018-06-11T18:42:26.493Z,22.10
2018-06-11T18:44:55.231Z,21.80
2018-06-11T18:47:23.545Z,21.60
2018-06-11T18:52:20.324Z,21.80
2018-06-11T18:54:48.636Z,21.60
2018-06-11T18:57:17.009Z,21.70
2018-06-11T18:59:45.343Z,21.80
2018-06-11T19:02:13.685Z,21.70
2018-06-11T19:04:42.013Z,21.70
2018-06-11T19:07:10.623Z,21.70
2018-06-11T19:09:38.886Z,21.70
2018-06-11T19:12:07.229Z,21.60
2018-06-11T19:14:36.369Z,21.50
2018-06-11T19:17:04.685Z,21.50
2018-06-11T19:19:33.001Z,21.40
2018-06-11T19:22:01.380Z,21.40
2018-06-11T19:24:29.660Z,21.40
2018-06-11T19:26:58.054Z,21.30
2018-06-11T19:29:26.833Z,21.10
2018-06-11T19:31:55.871Z,21.10
2018-06-11T19:34:24.232Z,21.10
2018-06-11T19:36:52.804Z,21.10
2018-06-11T19:39:21.801Z,21.00
2018-06-11T19:41:50.380Z,20.80
2018-06-11T19:44:18.865Z,20.70
2018-06-11T19:46:47.281Z,20.80
2018-06-11T19:49:15.705Z,20.60
2018-06-11T19:51:44.906Z,20.40
2018-06-11T19:54:13.301Z,20.40
2018-06-11T19:56:42.274Z,20.30
2018-06-11T19:59:11.189Z,20.20
2018-06-11T20:01:39.509Z,20.20
2018-06-11T20:04:08.023Z,20.10
2018-06-11T20:06:36.352Z,20.20
2018-06-11T20:09:07.839Z,20.00
2018-06-11T20:11:36.231Z,19.90
2018-06-11T20:14:05.283Z,19.80
2018-06-11T20:16:33.620Z,19.90
2018-06-11T20:19:01.981Z,19.80
2018-06-11T20:21:30.508Z,19.50
2018-06-11T20:23:58.905Z,19.40
2018-06-11T20:26:28.037Z,19.40
2018-06-11T20:28:56.416Z,19.30
2018-06-11T20:31:25.717Z,19.30
2018-06-11T20:33:54.244Z,19.20
2018-06-11T20:36:22.645Z,19.10
2018-06-11T20:38:51.063Z,19.10
2018-06-11T20:41:19.461Z,19.20
2018-06-11T20:43:47.800Z,19.20
2018-06-11T20:46:16.985Z,19.00
2018-06-11T20:48:45.362Z,18.90
2018-06-11T20:51:14.069Z,18.60
2018-06-11T20:53:43.113Z,18.70
2018-06-11T20:56:12.186Z,18.80
2018-06-11T20:58:40.750Z,18.60
2018-06-11T21:01:09.232Z,18.40
2018-06-11T21:03:37.933Z,18.50
2018-06-11T21:06:06.374Z,18.30
2018-06-11T21:08:34.796Z,18.30
2018-06-11T21:11:03.282Z,18.20
2018-06-11T21:13:31.629Z,18.10
2018-06-11T21:16:00.083Z,18.10
2018-06-11T21:18:28.529Z,18.00
2018-06-11T21:20:56.937Z,18.00
2018-06-11T21:25:53.413Z,18.00
2018-06-11T21:28:21.802Z,17.80
2018-06-11T21:30:50.182Z,17.80
2018-06-11T21:33:18.723Z,17.80
2018-06-11T21:35:47.304Z,17.70
2018-06-11T21:38:15.653Z,17.60
2018-06-11T21:40:43.993Z,17.60
2018-06-11T21:43:12.341Z,17.60
2018-06-11T21:45:40.685Z,17.50
2018-06-11T21:48:09.767Z,17.50
2018-06-11T21:50:38.247Z,17.50
2018-06-11T21:53:07.245Z,17.40
2018-06-11T21:55:35.681Z,17.30
2018-06-11T21:58:04.192Z,17.20
2018-06-11T22:00:32.561Z,17.10
2018-06-11T22:03:00.904Z,17.00
2018-06-11T22:05:29.292Z,17.10
2018-06-11T22:07:57.771Z,17.00
2018-06-11T22:10:26.368Z,17.10
2018-06-11T22:12:54.752Z,16.90
2018-06-11T22:20:19.380Z,16.80
2018-06-11T22:25:15.841Z,16.90
2018-06-11T22:27:44.156Z,16.90
2018-06-11T22:30:12.696Z,16.70
2018-06-11T22:32:41.059Z,16.60
2018-06-11T22:35:09.533Z,16.60
2018-06-11T22:37:37.873Z,16.60
2018-06-11T22:40:06.213Z,16.40
2018-06-11T22:42:34.537Z,16.40
2018-06-11T22:45:03.330Z,16.50
2018-06-11T22:47:31.841Z,16.50
2018-06-11T22:52:28.321Z,16.30
2018-06-11T22:54:56.759Z,16.20
2018-06-11T22:57:25.140Z,16.40
2018-06-11T22:59:53.449Z,16.30
2018-06-11T23:02:21.821Z,16.20
2018-06-11T23:04:50.220Z,16.40
2018-06-11T23:07:18.526Z,16.40
2018-06-11T23:09:46.977Z,16.30
2018-06-11T23:12:15.305Z,16.20
2018-06-11T23:14:43.697Z,16.20
2018-06-11T23:17:12.194Z,16.30
2018-06-11T23:19:40.508Z,16.20
2018-06-11T23:22:08.926Z,16.10
2018-06-11T23:24:37.313Z,16.10
2018-06-11T23:27:05.649Z,16.00
2018-06-11T23:29:33.989Z,16.00
2018-06-11T23:32:02.346Z,16.10
2018-06-11T23:34:30.641Z,16.10
2018-06-11T23:36:59.481Z,16.00
2018-06-11T23:39:27.933Z,15.90
2018-06-11T23:41:56.286Z,16.00
2018-06-11T23:44:24.625Z,15.90
2018-06-11T23:46:53.241Z,15.90
2018-06-11T23:49:21.597Z,15.80
2018-06-11T23:51:49.919Z,15.60
2018-06-11T23:54:18.405Z,15.50
2018-06-11T23:56:46.733Z,15.80
2018-06-11T23:59:15.050Z,15.80
